Time;durP1;ratioP1;P1;durP2;ratioP2;P2;SDS_P1;SDS_P2;PMS_P1;PMS_P2;Temp;Humidity;BMP_temperature;BMP_pressure;BME280_temperature;BME280_humidity;BME280_pressure;Samples;Min_cycle;Max_cycle;Signal;HPM_P1;HPM_P2
2023/06/16 15:08:04;;;;;;;3.65;3.35;;;23.10;97.50;;;;;;5125456;27;20550;-64
2023/06/16 15:10:31;;;;;;;3.58;3.30;;;23.20;98.30;;;;;;5100540;28;20214;-66
2023/06/16 15:12:58;;;;;;;4.30;3.90;;;23.20;98.60;;;;;;5098484;28;20540;-65
2023/06/16 15:15:26;;;;;;;3.97;3.65;;;23.30;98.00;;;;;;5105868;28;20286;-65
2023/06/16 15:17:54;;;;;;;3.42;3.20;;;23.30;98.10;;;;;;5095356;28;20192;-66
2023/06/16 15:20:21;;;;;;;13.35;8.43;;;23.40;98.00;;;;;;5100766;28;20196;-66
2023/06/16 15:22:48;;;;;;;28.73;12.50;;;23.60;97.80;;;;;;5102993;28;20188;-66
2023/06/16 15:25:18;;;;;;;21.95;11.63;;;23.70;97.60;;;;;;5107054;28;20520;-65
2023/06/16 15:27:45;;;;;;;19.20;8.20;;;23.70;97.50;;;;;;5089810;28;20563;-66
2023/06/16 15:30:14;;;;;;;11.35;6.82;;;23.80;97.20;;;;;;5105585;28;20566;-66
2023/06/16 15:32:42;;;;;;;5.15;4.63;;;23.90;97.10;;;;;;5100029;28;20208;-66
2023/06/16 15:35:09;;;;;;;6.18;4.50;;;23.90;97.00;;;;;;5105145;28;20246;-66
2023/06/16 15:37:37;;;;;;;4.85;4.35;;;23.90;96.90;;;;;;5098740;28;20269;-66
2023/06/16 15:40:05;;;;;;;4.10;3.70;;;23.90;97.00;;;;;;5098641;28;20196;-66
2023/06/16 15:42:34;;;;;;;3.53;3.33;;;23.80;96.70;;;;;;5102875;28;20290;-66
2023/06/16 15:45:02;;;;;;;4.15;3.75;;;23.80;96.80;;;;;;5104636;28;20227;-66
2023/06/16 15:47:29;;;;;;;3.42;3.22;;;23.90;96.80;;;;;;5097116;28;20277;-66
2023/06/16 15:49:57;;;;;;;3.35;3.13;;;24.00;96.80;;;;;;5103717;28;20187;-66
2023/06/16 15:52:24;;;;;;;3.42;3.22;;;23.90;96.70;;;;;;5098822;28;20192;-66
2023/06/16 15:54:52;;;;;;;3.70;3.30;;;23.90;96.20;;;;;;5099285;28;20208;-66
2023/06/16 15:57:20;;;;;;;3.47;3.17;;;23.90;96.10;;;;;;5101715;27;20195;-64
2023/06/16 15:59:48;;;;;;;3.42;3.22;;;23.90;96.30;;;;;;5098156;28;20204;-65
2023/06/16 16:02:16;;;;;;;2.47;2.38;;;23.80;96.10;;;;;;5100600;28;20710;-66
2023/06/16 16:04:44;;;;;;;3.13;2.90;;;23.90;96.30;;;;;;5099139;28;20196;-66
2023/06/16 16:07:11;;;;;;;3.22;3.00;;;23.90;96.20;;;;;;5099201;28;20315;-66
2023/06/16 16:09:39;;;;;;;2.60;2.40;;;23.90;95.90;;;;;;5100050;28;20257;-66
2023/06/16 16:12:07;;;;;;;3.03;2.83;;;23.90;95.90;;;;;;5103228;28;20554;-65
2023/06/16 16:14:37;;;;;;;4.30;3.83;;;23.80;96.00;;;;;;5103248;28;20200;-65
2023/06/16 16:17:06;;;;;;;3.97;3.63;;;23.90;95.90;;;;;;5090882;28;20193;-66
2023/06/16 16:19:33;;;;;;;3.15;2.80;;;23.90;95.90;;;;;;5087878;28;20192;-65
2023/06/16 16:22:01;;;;;;;4.70;3.42;;;23.90;96.00;;;;;;5085198;28;20215;-64
2023/06/16 16:24:28;;;;;;;3.40;3.20;;;23.80;95.70;;;;;;5077130;28;20201;-66
2023/06/16 16:26:56;;;;;;;4.90;2.80;;;23.80;95.80;;;;;;5087197;28;20209;-67
2023/06/16 16:29:28;;;;;;;4.03;2.83;;;23.80;95.90;;;;;;5079805;28;20216;-66
2023/06/16 16:31:57;;;;;;;2.33;2.22;;;23.80;96.00;;;;;;5088742;28;20639;-66
2023/06/16 16:34:28;;;;;;;2.30;2.10;;;23.80;96.10;;;;;;5087745;28;20196;-67
2023/06/16 16:36:57;;;;;;;3.03;2.83;;;23.80;96.10;;;;;;5087593;28;20281;-66
2023/06/16 16:39:25;;;;;;;2.50;2.40;;;23.80;96.10;;;;;;5084953;28;20203;-66
2023/06/16 16:41:54;;;;;;;2.10;2.00;;;23.90;96.10;;;;;;5083639;28;20219;-67
2023/06/16 16:44:22;;;;;;;2.13;2.00;;;24.00;96.10;;;;;;5086096;28;20188;-66
2023/06/16 16:46:50;;;;;;;2.20;2.10;;;24.00;96.10;;;;;;5089765;28;20278;-66
2023/06/16 16:49:18;;;;;;;2.53;2.33;;;24.10;96.10;;;;;;5090804;28;20196;-66
2023/06/16 16:51:48;;;;;;;2.90;2.60;;;24.10;96.00;;;;;;5085775;28;20196;-65
2023/06/16 16:54:15;;;;;;;3.05;2.85;;;24.10;96.00;;;;;;5081714;28;20193;-65
2023/06/16 16:56:43;;;;;;;3.13;2.88;;;24.10;95.80;;;;;;5087606;28;20220;-65
2023/06/16 16:59:11;;;;;;;3.45;3.22;;;24.10;95.70;;;;;;5082768;28;20199;-66
2023/06/16 17:01:38;;;;;;;3.63;3.38;;;24.10;95.60;;;;;;5090914;28;20690;-66
2023/06/16 17:04:06;;;;;;;3.85;3.55;;;24.10;95.50;;;;;;5083142;28;20200;-66
2023/06/16 17:06:36;;;;;;;3.38;3.17;;;24.00;95.40;;;;;;5083373;28;20668;-67
2023/06/16 17:09:06;;;;;;;3.60;3.30;;;24.00;95.40;;;;;;5086333;28;20204;-67
2023/06/16 17:11:34;;;;;;;4.80;3.33;;;24.00;95.40;;;;;;5084819;28;20185;-67
2023/06/16 17:14:01;;;;;;;3.10;2.90;;;24.00;95.30;;;;;;5099118;28;20192;-66
2023/06/16 17:16:32;;;;;;;2.92;2.72;;;24.00;95.30;;;;;;5081332;28;20192;-66
2023/06/16 17:19:00;;;;;;;3.20;2.90;;;24.00;95.20;;;;;;5081579;28;20303;-66
2023/06/16 17:21:27;;;;;;;2.50;2.40;;;24.00;95.20;;;;;;5083866;28;20273;-67
2023/06/16 17:23:55;;;;;;;3.10;2.90;;;24.00;95.10;;;;;;5088411;28;20672;-66
2023/06/16 17:26:26;;;;;;;4.20;3.90;;;23.90;94.90;;;;;;5086150;28;20210;-65
2023/06/16 17:28:53;;;;;;;3.50;3.20;;;23.90;94.60;;;;;;5098128;27;20209;-65
2023/06/16 17:31:21;;;;;;;3.30;2.97;;;23.80;94.40;;;;;;5070798;28;20501;-65
2023/06/16 17:33:48;;;;;;;2.33;2.22;;;23.70;94.40;;;;;;5071561;28;20227;-65
2023/06/16 17:36:16;;;;;;;3.45;2.67;;;23.70;94.60;;;;;;5083516;28;20196;-65
2023/06/16 17:38:43;;;;;;;3.22;3.03;;;23.60;94.60;;;;;;5078987;28;20190;-65
2023/06/16 17:41:11;;;;;;;2.85;2.42;;;23.60;94.50;;;;;;5084485;28;20201;-66
2023/06/16 17:43:40;;;;;;;3.20;2.67;;;23.60;94.60;;;;;;5079726;28;20512;-66
2023/06/16 17:46:07;;;;;;;2.03;1.92;;;23.60;94.80;;;;;;5080323;28;20190;-66
2023/06/16 17:48:35;;;;;;;2.60;2.30;;;23.60;94.80;;;;;;5071778;28;20208;-66
2023/06/16 17:51:03;;;;;;;2.40;2.20;;;23.60;94.80;;;;;;5077739;28;20265;-67
2023/06/16 17:53:30;;;;;;;2.67;2.47;;;23.60;94.70;;;;;;5080232;28;20188;-66
2023/06/16 17:55:58;;;;;;;3.47;2.40;;;23.60;94.60;;;;;;5081934;28;20193;-66
2023/06/16 17:58:25;;;;;;;2.30;2.10;;;23.60;94.90;;;;;;5087192;28;20250;-66
2023/06/16 18:00:54;;;;;;;2.10;2.00;;;23.50;94.50;;;;;;5082735;28;20211;-66
2023/06/16 18:03:22;;;;;;;2.60;2.50;;;23.50;94.60;;;;;;5083780;28;20221;-66
2023/06/16 18:05:49;;;;;;;2.40;2.25;;;23.50;94.50;;;;;;5090910;28;20219;-67
2023/06/16 18:08:17;;;;;;;2.10;2.00;;;23.60;94.50;;;;;;5086452;28;20212;-67
2023/06/16 18:10:44;;;;;;;1.95;1.85;;;23.50;94.60;;;;;;5087937;28;20196;-67
2023/06/16 18:13:12;;;;;;;2.00;1.90;;;23.50;94.60;;;;;;5086438;28;20200;-67
2023/06/16 18:15:39;;;;;;;2.13;1.85;;;23.50;94.70;;;;;;5084073;28;20421;-66
2023/06/16 18:18:09;;;;;;;2.20;2.10;;;23.50;94.70;;;;;;5086844;28;20328;-67
2023/06/16 18:20:36;;;;;;;1.90;1.80;;;23.50;94.70;;;;;;5086034;28;20216;-66
2023/06/16 18:23:04;;;;;;;1.90;1.80;;;23.50;94.70;;;;;;5077687;28;20184;-65
2023/06/16 18:25:31;;;;;;;1.20;1.20;;;23.50;94.80;;;;;;5087593;28;20604;-67
2023/06/16 18:28:02;;;;;;;1.35;1.35;;;23.50;94.80;;;;;;5077552;28;20204;-66
2023/06/16 18:30:30;;;;;;;1.38;1.38;;;23.50;94.80;;;;;;5077451;28;20176;-66
2023/06/16 18:32:57;;;;;;;1.40;1.40;;;23.50;94.90;;;;;;5083600;28;20207;-66
2023/06/16 18:35:26;;;;;;;1.40;1.27;;;23.40;94.90;;;;;;5083041;28;20193;-66
2023/06/16 18:37:54;;;;;;;1.25;1.13;;;23.40;94.90;;;;;;5088138;28;20596;-66
2023/06/16 18:40:21;;;;;;;1.20;1.20;;;23.40;95.00;;;;;;5087947;28;20193;-66
2023/06/16 18:42:49;;;;;;;2.13;2.03;;;23.30;95.00;;;;;;5087973;28;20206;-66
2023/06/16 18:45:17;;;;;;;1.63;1.52;;;23.30;94.90;;;;;;5082645;28;20193;-66
2023/06/16 18:47:45;;;;;;;1.70;1.60;;;23.30;95.00;;;;;;5085853;28;20246;-67
2023/06/16 18:50:13;;;;;;;1.60;1.60;;;23.30;95.10;;;;;;5084357;28;20228;-67
2023/06/16 18:52:42;;;;;;;1.60;1.50;;;23.30;95.10;;;;;;5084641;28;20648;-67
2023/06/16 18:55:12;;;;;;;1.30;1.30;;;23.30;95.10;;;;;;5087396;28;20242;-67
2023/06/16 18:57:39;;;;;;;1.35;1.25;;;23.30;95.10;;;;;;5085707;28;20185;-66
2023/06/16 19:00:08;;;;;;;1.10;1.10;;;23.30;95.20;;;;;;5085844;28;20192;-67
2023/06/16 19:02:37;;;;;;;1.10;1.10;;;23.30;95.10;;;;;;5088031;28;20232;-66
2023/06/16 19:05:07;;;;;;;1.08;1.08;;;23.30;95.10;;;;;;5083682;28;20189;-67
2023/06/16 19:07:35;;;;;;;1.08;1.08;;;23.30;95.10;;;;;;5083124;28;20233;-67
2023/06/16 19:10:04;;;;;;;1.30;1.25;;;23.30;95.10;;;;;;5088253;28;20591;-65
2023/06/16 19:12:33;;;;;;;2.60;1.20;;;23.30;95.10;;;;;;5084828;28;20199;-65
2023/06/16 19:15:00;;;;;;;2.05;1.30;;;23.30;95.10;;;;;;5082965;28;20295;-66
2023/06/16 19:17:28;;;;;;;1.30;1.30;;;23.30;95.20;;;;;;5090302;28;20286;-66
2023/06/16 19:19:55;;;;;;;1.15;1.13;;;23.30;95.20;;;;;;5086739;28;20199;-66
2023/06/16 19:22:23;;;;;;;1.88;1.10;;;23.30;95.30;;;;;;5090392;28;20275;-65
2023/06/16 19:24:50;;;;;;;1.50;1.33;;;23.30;95.30;;;;;;5085526;28;20284;-66
2023/06/16 19:27:19;;;;;;;2.28;1.30;;;23.30;95.30;;;;;;5079868;28;20216;-66
2023/06/16 19:29:46;;;;;;;1.92;1.20;;;23.20;95.30;;;;;;5085611;28;20283;-66
2023/06/16 19:32:14;;;;;;;1.90;1.30;;;23.20;95.30;;;;;;5080349;28;20195;-66
2023/06/16 19:34:42;;;;;;;1.10;1.10;;;23.20;95.30;;;;;;5080821;28;20246;-66
2023/06/16 19:37:11;;;;;;;2.28;1.20;;;23.20;95.30;;;;;;5086501;28;20195;-63
2023/06/16 19:39:38;;;;;;;1.13;1.13;;;23.20;95.30;;;;;;5087948;28;20275;-64
2023/06/16 19:42:07;;;;;;;1.92;1.40;;;23.10;95.20;;;;;;5085099;28;20189;-64
2023/06/16 19:44:36;;;;;;;1.40;1.40;;;23.00;95.20;;;;;;5089290;28;20197;-63
2023/06/16 19:47:03;;;;;;;1.67;1.58;;;23.00;95.30;;;;;;5077013;28;20264;-64
2023/06/16 19:49:31;;;;;;;4.10;1.70;;;22.90;95.30;;;;;;5084347;28;20205;-63
2023/06/16 19:51:58;;;;;;;3.85;1.85;;;22.90;95.30;;;;;;5087285;28;20602;-63
2023/06/16 19:54:26;;;;;;;1.67;1.58;;;22.80;95.30;;;;;;5084714;28;20205;-63
2023/06/16 19:56:55;;;;;;;5.32;1.40;;;22.70;95.30;;;;;;5084474;28;20208;-62
2023/06/16 19:59:24;;;;;;;2.42;1.27;;;22.70;95.30;;;;;;5084227;28;20189;-63
2023/06/16 20:01:54;;;;;;;1.63;1.52;;;22.60;95.30;;;;;;5086774;28;20200;-63
2023/06/16 20:04:22;;;;;;;2.80;1.42;;;22.50;95.40;;;;;;5083462;28;20316;-64
2023/06/16 20:06:49;;;;;;;1.88;1.40;;;22.50;95.40;;;;;;5090849;28;20236;-64
2023/06/16 20:09:17;;;;;;;2.17;1.50;;;22.50;95.50;;;;;;5089341;28;20232;-63
2023/06/16 20:11:44;;;;;;;3.75;1.40;;;22.40;95.50;;;;;;5087102;28;20233;-65
2023/06/16 20:14:12;;;;;;;1.42;1.17;;;22.40;95.50;;;;;;5086648;28;20304;-63
2023/06/16 20:16:40;;;;;;;3.92;1.55;;;22.30;95.60;;;;;;5080157;28;20286;-63
2023/06/16 20:19:09;;;;;;;3.10;1.65;;;22.20;95.60;;;;;;5088826;28;20298;-63
2023/06/16 20:21:36;;;;;;;1.77;1.60;;;22.20;95.80;;;;;;5092492;28;20181;-63
2023/06/16 20:24:04;;;;;;;3.90;1.45;;;22.20;95.80;;;;;;5087143;28;20682;-64
2023/06/16 20:26:31;;;;;;;6.65;1.90;;;22.20;95.80;;;;;;5088161;28;20189;-64
2023/06/16 20:28:59;;;;;;;2.15;1.48;;;22.20;95.90;;;;;;5088553;28;20516;-64
2023/06/16 20:31:26;;;;;;;2.08;1.80;;;22.20;95.90;;;;;;5083128;28;20293;-64
2023/06/16 20:33:54;;;;;;;2.65;1.48;;;22.10;95.90;;;;;;5080611;28;20223;-64
2023/06/16 20:36:23;;;;;;;3.25;1.70;;;22.20;96.00;;;;;;5091477;28;20189;-63
2023/06/16 20:38:51;;;;;;;1.88;1.60;;;22.20;96.00;;;;;;5087238;28;20260;-63
2023/06/16 20:41:18;;;;;;;2.25;1.65;;;22.10;95.90;;;;;;5084835;28;20224;-64
2023/06/16 20:43:47;;;;;;;3.70;1.92;;;22.10;96.00;;;;;;5087469;28;20203;-63
2023/06/16 20:46:14;;;;;;;1.45;1.35;;;22.10;96.00;;;;;;5088268;28;20184;-63
2023/06/16 20:48:43;;;;;;;2.03;1.40;;;22.10;96.10;;;;;;5083107;28;20201;-64
2023/06/16 20:51:11;;;;;;;1.33;1.23;;;22.10;96.50;;;;;;5090576;28;20217;-63
2023/06/16 20:53:40;;;;;;;1.40;1.30;;;22.00;96.10;;;;;;5090470;28;20748;-64
2023/06/16 20:56:07;;;;;;;1.23;1.20;;;22.00;96.20;;;;;;5081441;28;20193;-64
2023/06/16 20:58:36;;;;;;;1.48;1.40;;;22.00;96.20;;;;;;5080679;28;20204;-63
2023/06/16 21:01:08;;;;;;;1.40;1.30;;;22.00;96.20;;;;;;5087297;28;20220;-64
2023/06/16 21:03:35;;;;;;;1.30;1.30;;;22.00;96.20;;;;;;5087580;28;20674;-64
2023/06/16 21:06:02;;;;;;;2.95;1.60;;;22.00;96.10;;;;;;5091401;28;20192;-64
2023/06/16 21:08:32;;;;;;;1.67;1.58;;;21.90;96.10;;;;;;5086538;28;20192;-64
2023/06/16 21:11:01;;;;;;;1.75;1.50;;;21.90;96.20;;;;;;5081341;28;20205;-64
2023/06/16 21:13:30;;;;;;;1.75;1.65;;;21.90;96.30;;;;;;5077267;28;20197;-64
2023/06/16 21:16:00;;;;;;;2.95;1.73;;;21.80;96.30;;;;;;5088167;28;20895;-63
2023/06/16 21:18:28;;;;;;;1.85;1.75;;;21.80;96.30;;;;;;5082595;28;20277;-64
2023/06/16 21:20:56;;;;;;;1.40;1.33;;;21.80;96.40;;;;;;5088250;28;20200;-64
2023/06/16 21:23:23;;;;;;;1.75;1.65;;;21.70;96.40;;;;;;5084300;28;20189;-64
2023/06/16 21:25:51;;;;;;;1.92;1.80;;;21.70;96.50;;;;;;5085358;28;20267;-63
2023/06/16 21:28:23;;;;;;;1.88;1.60;;;21.80;96.60;;;;;;5077401;28;20220;-62
2023/06/16 21:30:51;;;;;;;3.55;1.67;;;21.80;96.70;;;;;;5079373;28;20189;-63
2023/06/16 21:33:19;;;;;;;1.75;1.65;;;21.80;96.70;;;;;;5078896;28;20189;-64
2023/06/16 21:35:46;;;;;;;1.60;1.50;;;21.80;96.70;;;;;;5085244;28;20201;-62
2023/06/16 21:38:19;;;;;;;1.70;1.60;;;21.80;96.80;;;;;;5085663;28;20213;-64
2023/06/16 21:40:46;;;;;;;1.30;1.30;;;21.70;96.80;;;;;;5087063;28;20267;-64
2023/06/16 21:43:14;;;;;;;1.55;1.45;;;21.70;96.90;;;;;;5094075;28;20193;-63
2023/06/16 21:45:43;;;;;;;1.58;1.50;;;21.70;97.00;;;;;;5083515;28;20204;-65
2023/06/16 21:48:10;;;;;;;2.33;1.95;;;21.70;97.10;;;;;;5083429;28;20220;-63
2023/06/16 21:50:38;;;;;;;1.73;1.63;;;21.60;97.10;;;;;;5087653;28;20192;-63
2023/06/16 21:53:05;;;;;;;1.40;1.40;;;21.60;97.20;;;;;;5081465;28;20200;-63
2023/06/16 21:55:33;;;;;;;2.08;1.98;;;21.60;97.20;;;;;;5084118;28;20563;-63
2023/06/16 21:58:00;;;;;;;1.40;1.40;;;21.50;97.30;;;;;;5088968;28;20201;-63
2023/06/16 22:00:28;;;;;;;1.77;1.67;;;21.50;97.40;;;;;;5079305;28;20192;-62
2023/06/16 22:02:59;;;;;;;1.63;1.55;;;21.50;97.50;;;;;;5085051;28;20576;-63
2023/06/16 22:05:27;;;;;;;1.90;1.80;;;21.50;97.60;;;;;;5085328;28;20192;-63
2023/06/16 22:07:57;;;;;;;1.90;1.80;;;21.50;97.60;;;;;;5083549;28;20229;-64
2023/06/16 22:10:24;;;;;;;1.80;1.70;;;21.50;97.70;;;;;;5081691;28;20192;-64
2023/06/16 22:12:52;;;;;;;1.77;1.67;;;21.50;97.80;;;;;;5087215;28;20219;-63
2023/06/16 22:15:20;;;;;;;1.77;1.67;;;21.50;97.80;;;;;;5082855;28;20692;-64
2023/06/16 22:17:47;;;;;;;1.83;1.73;;;21.50;97.90;;;;;;5083145;28;20205;-64
2023/06/16 22:20:17;;;;;;;1.98;1.88;;;21.50;97.90;;;;;;5090360;28;20288;-64
2023/06/16 22:22:44;;;;;;;2.03;1.85;;;21.50;98.00;;;;;;5076012;28;20195;-63
2023/06/16 22:25:13;;;;;;;1.70;1.60;;;21.60;98.00;;;;;;5079403;28;20386;-64
2023/06/16 22:27:43;;;;;;;3.05;1.60;;;21.60;98.10;;;;;;5088773;28;20204;-64
2023/06/16 22:30:13;;;;;;;3.53;1.88;;;21.50;98.20;;;;;;5090324;28;20213;-64
2023/06/16 22:32:40;;;;;;;2.35;1.77;;;21.50;98.20;;;;;;5076017;28;20200;-64
2023/06/16 22:35:09;;;;;;;2.92;1.73;;;21.50;98.30;;;;;;5087574;28;20200;-63
2023/06/16 22:37:37;;;;;;;1.70;1.60;;;21.50;98.40;;;;;;5084851;28;20204;-63
2023/06/16 22:40:07;;;;;;;1.75;1.65;;;21.50;98.60;;;;;;5090101;28;20200;-64
2023/06/16 22:42:34;;;;;;;2.08;1.70;;;21.40;98.60;;;;;;5089339;28;20690;-64
2023/06/16 22:45:03;;;;;;;1.60;1.50;;;21.50;98.70;;;;;;5083754;28;20663;-63
2023/06/16 22:47:30;;;;;;;1.90;1.80;;;21.40;98.80;;;;;;5093802;28;20202;-63
2023/06/16 22:49:59;;;;;;;2.63;1.55;;;21.40;98.90;;;;;;5089796;28;20580;-63
2023/06/16 22:52:26;;;;;;;1.70;1.60;;;21.40;99.00;;;;;;5084047;28;20201;-64
2023/06/16 22:54:55;;;;;;;1.90;1.80;;;21.40;99.10;;;;;;5085981;28;20294;-64
2023/06/16 22:57:22;;;;;;;1.77;1.67;;;21.40;99.20;;;;;;5090223;28;20644;-64
2023/06/16 22:59:50;;;;;;;1.75;1.65;;;21.30;99.30;;;;;;5086127;28;20197;-63
2023/06/16 23:02:20;;;;;;;4.78;1.83;;;21.40;99.50;;;;;;5087817;28;20207;-63
2023/06/16 23:04:48;;;;;;;1.85;1.75;;;21.30;99.50;;;;;;5086208;28;20204;-62
2023/06/16 23:07:15;;;;;;;1.83;1.73;;;21.30;99.60;;;;;;5086097;28;20849;-62
2023/06/16 23:09:42;;;;;;;3.70;2.00;;;21.30;99.80;;;;;;5089273;28;20285;-62
2023/06/16 23:12:12;;;;;;;2.05;1.95;;;21.30;99.90;;;;;;5083826;28;20191;-63
2023/06/16 23:14:39;;;;;;;1.38;1.33;;;21.30;99.90;;;;;;5085345;28;20677;-63
2023/06/16 23:17:07;;;;;;;2.00;1.80;;;21.20;99.90;;;;;;5084946;28;20196;-63
2023/06/16 23:19:34;;;;;;;3.03;1.88;;;21.20;99.90;;;;;;5086012;28;20276;-63
2023/06/16 23:22:02;;;;;;;1.80;1.70;;;21.20;99.90;;;;;;5082396;28;20625;-62
2023/06/16 23:24:33;;;;;;;2.00;1.90;;;21.10;99.90;;;;;;5081133;28;20209;-63
2023/06/16 23:27:01;;;;;;;2.25;2.08;;;21.10;99.90;;;;;;5086286;28;20189;-63
2023/06/16 23:29:33;;;;;;;1.88;1.77;;;21.00;99.90;;;;;;5091694;28;20216;-63
2023/06/16 23:32:00;;;;;;;2.30;2.20;;;21.00;99.90;;;;;;5092989;28;20214;-63
2023/06/16 23:34:28;;;;;;;2.10;2.00;;;21.00;99.90;;;;;;5085498;28;20192;-63
2023/06/16 23:36:57;;;;;;;2.10;2.00;;;21.00;99.90;;;;;;5093525;28;20204;-63
2023/06/16 23:39:24;;;;;;;2.38;2.28;;;21.00;99.90;;;;;;5087448;28;20584;-63
2023/06/16 23:41:52;;;;;;;2.38;2.28;;;21.10;99.90;;;;;;5085444;28;20204;-63
2023/06/16 23:44:20;;;;;;;2.10;2.00;;;21.10;99.90;;;;;;5093056;28;20204;-63
2023/06/16 23:46:49;;;;;;;2.45;2.33;;;21.00;99.90;;;;;;5091730;28;20199;-63
2023/06/16 23:49:17;;;;;;;2.40;2.20;;;21.00;99.90;;;;;;5085653;28;20580;-63
2023/06/16 23:51:44;;;;;;;1.90;1.80;;;21.00;99.90;;;;;;5092331;28;20647;-63
2023/06/16 23:54:13;;;;;;;2.03;1.92;;;21.00;99.90;;;;;;5085562;28;20204;-62
2023/06/16 23:56:40;;;;;;;2.42;2.22;;;21.00;99.90;;;;;;5082676;28;20713;-62
2023/06/16 23:59:07;;;;;;;2.35;2.20;;;21.00;99.90;;;;;;5091331;28;20197;-63
